sensor_id;sensor_type;location;lat;lon;timestamp;pressure;altitude;pressure_sealevel;temperature;humidity
55801;BME280;41730;51.960;20.158;2022-10-22T00:01:34;99880.09;;;11.42;74.45
55801;BME280;41730;51.960;20.158;2022-10-22T00:04:05;99878.18;;;11.32;74.66
55801;BME280;41730;51.960;20.158;2022-10-22T00:06:34;99879.94;;;11.28;74.75
55801;BME280;41730;51.960;20.158;2022-10-22T00:09:03;99890.97;;;11.15;75.20
55801;BME280;41730;51.960;20.158;2022-10-22T00:11:32;99893.09;;;11.30;74.87
55801;BME280;41730;51.960;20.158;2022-10-22T00:14:01;99890.67;;;11.49;74.07
55801;BME280;41730;51.960;20.158;2022-10-22T00:16:30;99883.99;;;11.47;73.97
55801;BME280;41730;51.960;20.158;2022-10-22T00:18:59;99884.02;;;11.49;74.20
55801;BME280;41730;51.960;20.158;2022-10-22T00:21:28;99884.96;;;11.61;73.54
55801;BME280;41730;51.960;20.158;2022-10-22T00:23:58;99888.29;;;11.52;73.89
55801;BME280;41730;51.960;20.158;2022-10-22T00:26:27;99884.83;;;11.36;74.41
55801;BME280;41730;51.960;20.158;2022-10-22T00:28:56;99880.86;;;11.43;74.32
55801;BME280;41730;51.960;20.158;2022-10-22T00:31:24;99876.09;;;11.47;74.41
55801;BME280;41730;51.960;20.158;2022-10-22T00:33:53;99875.25;;;11.49;74.40
55801;BME280;41730;51.960;20.158;2022-10-22T00:36:22;99871.14;;;11.40;74.40
55801;BME280;41730;51.960;20.158;2022-10-22T00:38:51;99867.46;;;11.26;75.23
55801;BME280;41730;51.960;20.158;2022-10-22T00:41:20;99864.33;;;11.30;75.09
55801;BME280;41730;51.960;20.158;2022-10-22T00:43:58;99865.27;;;11.50;74.56
55801;BME280;41730;51.960;20.158;2022-10-22T00:46:27;99865.34;;;11.59;73.87
55801;BME280;41730;51.960;20.158;2022-10-22T00:48:57;99866.52;;;11.56;74.05
55801;BME280;41730;51.960;20.158;2022-10-22T00:51:29;99862.14;;;11.52;74.52
55801;BME280;41730;51.960;20.158;2022-10-22T00:54:03;99863.55;;;11.67;74.28
55801;BME280;41730;51.960;20.158;2022-10-22T00:56:34;99855.87;;;11.57;74.37
55801;BME280;41730;51.960;20.158;2022-10-22T00:59:03;99853.73;;;11.51;74.68
55801;BME280;41730;51.960;20.158;2022-10-22T01:01:32;99846.86;;;11.41;75.25
55801;BME280;41730;51.960;20.158;2022-10-22T01:04:01;99847.82;;;11.32;75.69
55801;BME280;41730;51.960;20.158;2022-10-22T01:06:31;99838.89;;;11.32;75.72
55801;BME280;41730;51.960;20.158;2022-10-22T01:09:09;99836.81;;;11.31;75.95
55801;BME280;41730;51.960;20.158;2022-10-22T01:11:50;99837.23;;;11.31;75.98
55801;BME280;41730;51.960;20.158;2022-10-22T01:14:27;99833.16;;;11.27;76.19
55801;BME280;41730;51.960;20.158;2022-10-22T01:17:05;99834.25;;;11.27;76.16
55801;BME280;41730;51.960;20.158;2022-10-22T01:19:52;99835.83;;;11.27;76.38
55801;BME280;41730;51.960;20.158;2022-10-22T01:22:29;99841.91;;;11.35;76.04
55801;BME280;41730;51.960;20.158;2022-10-22T01:25:06;99842.11;;;11.21;76.73
55801;BME280;41730;51.960;20.158;2022-10-22T01:27:44;99846.95;;;11.05;77.58
55801;BME280;41730;51.960;20.158;2022-10-22T01:30:17;99857.73;;;11.08;77.52
55801;BME280;41730;51.960;20.158;2022-10-22T01:32:50;99862.89;;;10.89;78.53
55801;BME280;41730;51.960;20.158;2022-10-22T01:35:24;99854.42;;;10.88;78.65
55801;BME280;41730;51.960;20.158;2022-10-22T01:37:56;99842.48;;;10.82;79.04
55801;BME280;41730;51.960;20.158;2022-10-22T01:40:27;99840.79;;;10.76;79.32
55801;BME280;41730;51.960;20.158;2022-10-22T01:42:58;99852.13;;;10.68;79.80
55801;BME280;41730;51.960;20.158;2022-10-22T01:45:29;99847.78;;;10.70;79.82
55801;BME280;41730;51.960;20.158;2022-10-22T01:48:07;99840.80;;;10.70;79.87
55801;BME280;41730;51.960;20.158;2022-10-22T01:50:52;99839.30;;;10.71;80.26
55801;BME280;41730;51.960;20.158;2022-10-22T01:53:29;99840.19;;;10.78;79.76
55801;BME280;41730;51.960;20.158;2022-10-22T01:56:11;99835.64;;;10.74;79.86
55801;BME280;41730;51.960;20.158;2022-10-22T01:58:46;99840.98;;;10.70;80.27
55801;BME280;41730;51.960;20.158;2022-10-22T02:01:23;99843.55;;;10.68;80.37
55801;BME280;41730;51.960;20.158;2022-10-22T02:03:55;99838.69;;;10.60;80.83
55801;BME280;41730;51.960;20.158;2022-10-22T02:06:28;99835.16;;;10.52;80.76
55801;BME280;41730;51.960;20.158;2022-10-22T02:09:00;99837.67;;;10.63;81.04
55801;BME280;41730;51.960;20.158;2022-10-22T02:11:30;99835.70;;;10.70;80.80
55801;BME280;41730;51.960;20.158;2022-10-22T02:14:02;99834.02;;;10.67;81.04
55801;BME280;41730;51.960;20.158;2022-10-22T02:16:33;99825.51;;;10.70;81.04
55801;BME280;41730;51.960;20.158;2022-10-22T02:19:09;99825.43;;;10.77;80.91
55801;BME280;41730;51.960;20.158;2022-10-22T02:21:43;99827.08;;;10.84;80.61
55801;BME280;41730;51.960;20.158;2022-10-22T02:24:12;99829.30;;;10.82;80.89
55801;BME280;41730;51.960;20.158;2022-10-22T02:26:47;99833.34;;;10.80;81.02
55801;BME280;41730;51.960;20.158;2022-10-22T02:29:23;99829.36;;;10.82;81.29
55801;BME280;41730;51.960;20.158;2022-10-22T02:31:55;99832.02;;;10.81;81.46
55801;BME280;41730;51.960;20.158;2022-10-22T02:34:28;99831.56;;;10.84;81.50
55801;BME280;41730;51.960;20.158;2022-10-22T02:36:59;99821.94;;;10.95;81.22
55801;BME280;41730;51.960;20.158;2022-10-22T02:39:30;99825.65;;;10.88;81.39
55801;BME280;41730;51.960;20.158;2022-10-22T02:42:00;99827.66;;;10.85;81.56
55801;BME280;41730;51.960;20.158;2022-10-22T02:44:29;99829.55;;;10.74;82.16
55801;BME280;41730;51.960;20.158;2022-10-22T02:46:58;99829.64;;;10.75;82.38
55801;BME280;41730;51.960;20.158;2022-10-22T02:49:28;99818.74;;;10.91;81.95
55801;BME280;41730;51.960;20.158;2022-10-22T02:51:57;99814.77;;;10.94;81.78
55801;BME280;41730;51.960;20.158;2022-10-22T02:54:26;99813.83;;;10.89;81.84
55801;BME280;41730;51.960;20.158;2022-10-22T02:56:56;99812.61;;;10.87;81.92
55801;BME280;41730;51.960;20.158;2022-10-22T02:59:24;99800.20;;;10.98;81.67
55801;BME280;41730;51.960;20.158;2022-10-22T03:01:53;99794.13;;;11.03;81.30
55801;BME280;41730;51.960;20.158;2022-10-22T03:04:22;99793.88;;;11.02;81.24
55801;BME280;41730;51.960;20.158;2022-10-22T03:06:51;99802.77;;;10.99;81.38
55801;BME280;41730;51.960;20.158;2022-10-22T03:09:20;99814.69;;;10.83;82.05
55801;BME280;41730;51.960;20.158;2022-10-22T03:11:52;99825.31;;;10.66;82.85
55801;BME280;41730;51.960;20.158;2022-10-22T03:14:21;99834.72;;;10.75;82.85
55801;BME280;41730;51.960;20.158;2022-10-22T03:16:50;99838.81;;;10.78;82.49
55801;BME280;41730;51.960;20.158;2022-10-22T03:19:19;99846.39;;;10.80;82.70
55801;BME280;41730;51.960;20.158;2022-10-22T03:21:50;99844.40;;;10.88;82.27
55801;BME280;41730;51.960;20.158;2022-10-22T03:24:24;99844.26;;;10.86;82.43
55801;BME280;41730;51.960;20.158;2022-10-22T03:27:04;99835.13;;;10.88;82.39
55801;BME280;41730;51.960;20.158;2022-10-22T03:29:55;99828.12;;;11.00;81.91
55801;BME280;41730;51.960;20.158;2022-10-22T03:32:34;99822.16;;;11.00;81.84
55801;BME280;41730;51.960;20.158;2022-10-22T03:35:03;99825.60;;;10.93;82.05
55801;BME280;41730;51.960;20.158;2022-10-22T03:37:33;99832.21;;;10.83;82.38
55801;BME280;41730;51.960;20.158;2022-10-22T03:40:04;99823.41;;;10.88;82.41
55801;BME280;41730;51.960;20.158;2022-10-22T03:42:35;99803.90;;;10.96;82.19
55801;BME280;41730;51.960;20.158;2022-10-22T03:45:05;99806.17;;;11.00;81.93
55801;BME280;41730;51.960;20.158;2022-10-22T03:47:34;99811.36;;;10.93;82.22
55801;BME280;41730;51.960;20.158;2022-10-22T03:50:05;99811.48;;;10.82;82.46
55801;BME280;41730;51.960;20.158;2022-10-22T03:52:36;99817.89;;;10.87;82.67
55801;BME280;41730;51.960;20.158;2022-10-22T03:55:09;99807.91;;;11.06;82.05
55801;BME280;41730;51.960;20.158;2022-10-22T03:57:37;99803.00;;;11.02;82.00
55801;BME280;41730;51.960;20.158;2022-10-22T04:00:10;99796.60;;;10.97;82.23
55801;BME280;41730;51.960;20.158;2022-10-22T04:02:38;99793.43;;;10.93;82.46
55801;BME280;41730;51.960;20.158;2022-10-22T04:05:09;99796.98;;;10.99;82.01
55801;BME280;41730;51.960;20.158;2022-10-22T04:07:38;99795.92;;;10.99;81.87
55801;BME280;41730;51.960;20.158;2022-10-22T04:10:09;99792.15;;;10.86;82.38
55801;BME280;41730;51.960;20.158;2022-10-22T04:12:38;99785.17;;;10.76;82.64
55801;BME280;41730;51.960;20.158;2022-10-22T04:15:09;99791.70;;;10.81;82.59
55801;BME280;41730;51.960;20.158;2022-10-22T04:17:38;99786.88;;;10.78;82.44
55801;BME280;41730;51.960;20.158;2022-10-22T04:20:09;99788.32;;;10.76;82.73
55801;BME280;41730;51.960;20.158;2022-10-22T04:22:38;99791.41;;;10.81;82.41
55801;BME280;41730;51.960;20.158;2022-10-22T04:25:07;99794.91;;;10.71;82.90
55801;BME280;41730;51.960;20.158;2022-10-22T04:27:36;99798.45;;;10.69;83.07
55801;BME280;41730;51.960;20.158;2022-10-22T04:30:07;99798.23;;;10.65;83.20
55801;BME280;41730;51.960;20.158;2022-10-22T04:32:36;99797.19;;;10.57;83.49
55801;BME280;41730;51.960;20.158;2022-10-22T04:35:07;99796.93;;;10.62;83.40
55801;BME280;41730;51.960;20.158;2022-10-22T04:37:36;99796.27;;;10.73;83.20
55801;BME280;41730;51.960;20.158;2022-10-22T04:40:09;99792.27;;;10.73;82.99
55801;BME280;41730;51.960;20.158;2022-10-22T04:42:38;99797.38;;;10.63;83.43
55801;BME280;41730;51.960;20.158;2022-10-22T04:45:10;99799.28;;;10.67;83.26
55801;BME280;41730;51.960;20.158;2022-10-22T04:47:39;99795.52;;;10.70;83.30
55801;BME280;41730;51.960;20.158;2022-10-22T04:50:09;99789.73;;;10.76;83.02
55801;BME280;41730;51.960;20.158;2022-10-22T04:52:38;99785.16;;;10.78;82.83
55801;BME280;41730;51.960;20.158;2022-10-22T04:55:08;99786.61;;;10.78;82.89
55801;BME280;41730;51.960;20.158;2022-10-22T04:57:37;99785.69;;;10.80;82.58
55801;BME280;41730;51.960;20.158;2022-10-22T05:00:10;99793.63;;;10.91;82.34
55801;BME280;41730;51.960;20.158;2022-10-22T05:02:39;99795.98;;;10.98;81.99
55801;BME280;41730;51.960;20.158;2022-10-22T05:05:11;99792.58;;;10.97;81.98
55801;BME280;41730;51.960;20.158;2022-10-22T05:07:41;99790.81;;;10.97;81.95
55801;BME280;41730;51.960;20.158;2022-10-22T05:10:11;99794.47;;;10.99;82.02
55801;BME280;41730;51.960;20.158;2022-10-22T05:12:40;99794.63;;;11.05;81.91
55801;BME280;41730;51.960;20.158;2022-10-22T05:15:11;99790.19;;;11.15;81.45
55801;BME280;41730;51.960;20.158;2022-10-22T05:17:40;99781.38;;;11.20;81.27
55801;BME280;41730;51.960;20.158;2022-10-22T05:20:10;99781.02;;;11.21;81.01
55801;BME280;41730;51.960;20.158;2022-10-22T05:22:39;99780.78;;;11.32;80.78
55801;BME280;41730;51.960;20.158;2022-10-22T05:25:09;99786.98;;;11.37;80.46
55801;BME280;41730;51.960;20.158;2022-10-22T05:27:39;99788.92;;;11.35;80.53
55801;BME280;41730;51.960;20.158;2022-10-22T05:30:10;99788.77;;;11.35;80.58
55801;BME280;41730;51.960;20.158;2022-10-22T05:32:39;99783.98;;;11.31;80.55
55801;BME280;41730;51.960;20.158;2022-10-22T05:35:09;99786.31;;;11.27;80.52
55801;BME280;41730;51.960;20.158;2022-10-22T05:37:37;99777.04;;;11.23;80.76
55801;BME280;41730;51.960;20.158;2022-10-22T05:40:09;99775.90;;;11.31;80.68
55801;BME280;41730;51.960;20.158;2022-10-22T05:42:54;99786.96;;;11.50;79.72
55801;BME280;41730;51.960;20.158;2022-10-22T05:45:24;99795.26;;;11.41;79.99
55801;BME280;41730;51.960;20.158;2022-10-22T05:47:53;99795.75;;;11.35;80.11
55801;BME280;41730;51.960;20.158;2022-10-22T05:50:22;99797.77;;;11.49;79.72
55801;BME280;41730;51.960;20.158;2022-10-22T05:52:51;99801.84;;;11.53;79.63
55801;BME280;41730;51.960;20.158;2022-10-22T05:55:20;99797.76;;;11.64;79.24
55801;BME280;41730;51.960;20.158;2022-10-22T05:57:49;99805.52;;;11.58;79.34
55801;BME280;41730;51.960;20.158;2022-10-22T06:00:18;99799.73;;;11.56;79.73
55801;BME280;41730;51.960;20.158;2022-10-22T06:02:50;99803.73;;;11.64;79.28
55801;BME280;41730;51.960;20.158;2022-10-22T06:05:19;99807.88;;;11.58;79.46
55801;BME280;41730;51.960;20.158;2022-10-22T06:07:48;99806.23;;;11.55;79.42
55801;BME280;41730;51.960;20.158;2022-10-22T06:10:19;99799.92;;;11.38;80.15
55801;BME280;41730;51.960;20.158;2022-10-22T06:12:49;99799.38;;;11.32;80.40
55801;BME280;41730;51.960;20.158;2022-10-22T06:15:18;99813.76;;;11.32;80.58
55801;BME280;41730;51.960;20.158;2022-10-22T06:17:48;99817.95;;;11.26;80.69
55801;BME280;41730;51.960;20.158;2022-10-22T06:20:17;99814.56;;;11.29;80.83
55801;BME280;41730;51.960;20.158;2022-10-22T06:22:46;99809.97;;;11.41;80.38
55801;BME280;41730;51.960;20.158;2022-10-22T06:25:16;99811.89;;;11.60;79.96
55801;BME280;41730;51.960;20.158;2022-10-22T06:27:50;99820.58;;;11.68;79.37
55801;BME280;41730;51.960;20.158;2022-10-22T06:30:19;99820.48;;;11.62;79.49
55801;BME280;41730;51.960;20.158;2022-10-22T06:32:48;99827.94;;;11.49;80.08
55801;BME280;41730;51.960;20.158;2022-10-22T06:35:17;99830.39;;;11.46;79.89
55801;BME280;41730;51.960;20.158;2022-10-22T06:37:47;99834.04;;;11.48;79.87
55801;BME280;41730;51.960;20.158;2022-10-22T06:40:16;99836.04;;;11.48;79.84
55801;BME280;41730;51.960;20.158;2022-10-22T06:42:46;99848.48;;;11.63;79.42
55801;BME280;41730;51.960;20.158;2022-10-22T06:45:16;99870.56;;;11.65;79.25
55801;BME280;41730;51.960;20.158;2022-10-22T06:47:45;99878.90;;;11.60;78.94
55801;BME280;41730;51.960;20.158;2022-10-22T06:50:14;99878.16;;;11.49;79.48
55801;BME280;41730;51.960;20.158;2022-10-22T06:52:44;99877.25;;;11.50;79.34
55801;BME280;41730;51.960;20.158;2022-10-22T06:55:13;99876.05;;;11.57;79.11
55801;BME280;41730;51.960;20.158;2022-10-22T06:57:43;99870.17;;;11.67;78.72
55801;BME280;41730;51.960;20.158;2022-10-22T07:00:14;99861.42;;;11.92;77.84
55801;BME280;41730;51.960;20.158;2022-10-22T07:02:42;99850.88;;;12.05;77.44
55801;BME280;41730;51.960;20.158;2022-10-22T07:05:11;99844.36;;;12.02;76.98
55801;BME280;41730;51.960;20.158;2022-10-22T07:07:40;99841.42;;;11.96;77.74
55801;BME280;41730;51.960;20.158;2022-10-22T07:10:09;99841.48;;;12.06;77.69
55801;BME280;41730;51.960;20.158;2022-10-22T07:12:39;99842.58;;;12.02;77.56
55801;BME280;41730;51.960;20.158;2022-10-22T07:15:10;99842.94;;;11.98;78.02
55801;BME280;41730;51.960;20.158;2022-10-22T07:17:39;99854.89;;;12.00;78.22
55801;BME280;41730;51.960;20.158;2022-10-22T07:20:10;99854.57;;;12.03;77.92
55801;BME280;41730;51.960;20.158;2022-10-22T07:22:39;99858.73;;;12.09;77.69
55801;BME280;41730;51.960;20.158;2022-10-22T07:25:11;99867.84;;;12.13;78.07
55801;BME280;41730;51.960;20.158;2022-10-22T07:27:40;99872.99;;;12.22;77.39
55801;BME280;41730;51.960;20.158;2022-10-22T07:30:22;99877.89;;;12.19;77.76
55801;BME280;41730;51.960;20.158;2022-10-22T07:32:51;99876.34;;;12.18;78.01
55801;BME280;41730;51.960;20.158;2022-10-22T07:35:20;99876.05;;;12.25;78.12
55801;BME280;41730;51.960;20.158;2022-10-22T07:37:48;99876.23;;;12.36;77.47
55801;BME280;41730;51.960;20.158;2022-10-22T07:40:18;99872.27;;;12.28;77.68
55801;BME280;41730;51.960;20.158;2022-10-22T07:42:47;99874.38;;;12.39;77.29
55801;BME280;41730;51.960;20.158;2022-10-22T07:45:16;99869.92;;;12.56;77.05
55801;BME280;41730;51.960;20.158;2022-10-22T07:47:46;99882.83;;;12.53;76.96
55801;BME280;41730;51.960;20.158;2022-10-22T07:50:16;99881.36;;;12.67;76.74
55801;BME280;41730;51.960;20.158;2022-10-22T07:52:45;99877.98;;;12.73;76.20
55801;BME280;41730;51.960;20.158;2022-10-22T07:55:14;99888.50;;;12.63;76.61
55801;BME280;41730;51.960;20.158;2022-10-22T07:57:45;99895.50;;;12.57;76.63
55801;BME280;41730;51.960;20.158;2022-10-22T08:00:16;99898.92;;;12.49;77.19
55801;BME280;41730;51.960;20.158;2022-10-22T08:02:50;99898.97;;;12.47;76.83
55801;BME280;41730;51.960;20.158;2022-10-22T08:05:19;99892.16;;;12.48;76.77
55801;BME280;41730;51.960;20.158;2022-10-22T08:07:48;99885.92;;;12.45;77.09
55801;BME280;41730;51.960;20.158;2022-10-22T08:10:19;99888.53;;;12.51;76.75
55801;BME280;41730;51.960;20.158;2022-10-22T08:12:48;99889.71;;;12.53;76.80
55801;BME280;41730;51.960;20.158;2022-10-22T08:15:17;99877.61;;;12.66;76.39
55801;BME280;41730;51.960;20.158;2022-10-22T08:17:46;99873.23;;;12.68;76.31
55801;BME280;41730;51.960;20.158;2022-10-22T08:20:15;99880.79;;;12.66;76.25
55801;BME280;41730;51.960;20.158;2022-10-22T08:22:45;99881.41;;;12.78;76.05
55801;BME280;41730;51.960;20.158;2022-10-22T08:25:14;99877.87;;;12.79;76.07
55801;BME280;41730;51.960;20.158;2022-10-22T08:27:43;99889.60;;;12.71;76.43
55801;BME280;41730;51.960;20.158;2022-10-22T08:30:14;99894.38;;;12.78;76.21
55801;BME280;41730;51.960;20.158;2022-10-22T08:32:44;99891.59;;;12.87;75.96
55801;BME280;41730;51.960;20.158;2022-10-22T08:35:19;99895.52;;;13.04;75.01
55801;BME280;41730;51.960;20.158;2022-10-22T08:37:48;99899.95;;;12.98;75.36
55801;BME280;41730;51.960;20.158;2022-10-22T08:40:25;99906.64;;;13.08;74.86
55801;BME280;41730;51.960;20.158;2022-10-22T08:43:27;99909.23;;;13.02;75.06
55801;BME280;41730;51.960;20.158;2022-10-22T08:46:06;99904.17;;;13.23;74.63
55801;BME280;41730;51.960;20.158;2022-10-22T08:48:43;99905.40;;;13.31;74.59
55801;BME280;41730;51.960;20.158;2022-10-22T08:51:16;99911.48;;;13.37;73.91
55801;BME280;41730;51.960;20.158;2022-10-22T08:53:56;99913.18;;;13.41;74.03
55801;BME280;41730;51.960;20.158;2022-10-22T08:56:31;99915.61;;;13.27;74.61
55801;BME280;41730;51.960;20.158;2022-10-22T08:59:05;99916.38;;;13.32;74.82
55801;BME280;41730;51.960;20.158;2022-10-22T09:01:40;99913.56;;;13.45;74.41
55801;BME280;41730;51.960;20.158;2022-10-22T09:04:17;99906.39;;;13.55;74.22
55801;BME280;41730;51.960;20.158;2022-10-22T09:06:53;99908.05;;;13.65;74.08
55801;BME280;41730;51.960;20.158;2022-10-22T09:09:26;99907.30;;;13.67;73.65
55801;BME280;41730;51.960;20.158;2022-10-22T09:11:58;99903.15;;;13.73;73.94
55801;BME280;41730;51.960;20.158;2022-10-22T09:14:28;99904.33;;;13.90;73.57
55801;BME280;41730;51.960;20.158;2022-10-22T09:17:11;99898.96;;;13.89;73.66
55801;BME280;41730;51.960;20.158;2022-10-22T09:19:48;99894.81;;;13.96;73.77
55801;BME280;41730;51.960;20.158;2022-10-22T09:22:30;99895.09;;;14.09;73.36
55801;BME280;41730;51.960;20.158;2022-10-22T09:25:15;99894.86;;;14.17;73.23
55801;BME280;41730;51.960;20.158;2022-10-22T09:27:47;99894.20;;;14.21;73.11
55801;BME280;41730;51.960;20.158;2022-10-22T09:30:18;99888.25;;;14.35;73.04
55801;BME280;41730;51.960;20.158;2022-10-22T09:32:51;99888.09;;;14.34;73.15
55801;BME280;41730;51.960;20.158;2022-10-22T09:35:24;99884.98;;;14.34;73.83
55801;BME280;41730;51.960;20.158;2022-10-22T09:37:55;99890.15;;;14.47;73.60
55801;BME280;41730;51.960;20.158;2022-10-22T09:40:24;99901.11;;;14.53;73.46
55801;BME280;41730;51.960;20.158;2022-10-22T09:42:52;99907.52;;;14.70;73.07
55801;BME280;41730;51.960;20.158;2022-10-22T09:45:24;99907.08;;;14.86;72.43
55801;BME280;41730;51.960;20.158;2022-10-22T09:48:07;99903.89;;;14.88;72.39
55801;BME280;41730;51.960;20.158;2022-10-22T09:50:41;99900.26;;;14.82;72.66
55801;BME280;41730;51.960;20.158;2022-10-22T09:53:18;99900.04;;;14.91;72.44
55801;BME280;41730;51.960;20.158;2022-10-22T09:55:51;99910.67;;;14.94;72.15
55801;BME280;41730;51.960;20.158;2022-10-22T09:58:21;99920.91;;;15.02;71.79
55801;BME280;41730;51.960;20.158;2022-10-22T10:00:54;99919.78;;;14.99;71.80
55801;BME280;41730;51.960;20.158;2022-10-22T10:03:25;99922.03;;;14.83;72.01
55801;BME280;41730;51.960;20.158;2022-10-22T10:05:57;99920.58;;;14.63;72.58
55801;BME280;41730;51.960;20.158;2022-10-22T10:08:33;99919.43;;;14.43;73.37
55801;BME280;41730;51.960;20.158;2022-10-22T10:11:07;99916.18;;;14.53;73.28
55801;BME280;41730;51.960;20.158;2022-10-22T10:13:46;99911.30;;;14.62;72.85
55801;BME280;41730;51.960;20.158;2022-10-22T10:16:28;99901.16;;;14.55;73.12
55801;BME280;41730;51.960;20.158;2022-10-22T10:19:15;99905.13;;;14.47;73.19
55801;BME280;41730;51.960;20.158;2022-10-22T10:21:56;99914.31;;;14.52;73.24
55801;BME280;41730;51.960;20.158;2022-10-22T10:24:34;99922.69;;;14.56;73.03
55801;BME280;41730;51.960;20.158;2022-10-22T10:27:14;99930.09;;;14.72;72.40
55801;BME280;41730;51.960;20.158;2022-10-22T10:29:53;99931.96;;;14.65;72.56
55801;BME280;41730;51.960;20.158;2022-10-22T10:32:42;99937.85;;;14.63;72.79
55801;BME280;41730;51.960;20.158;2022-10-22T10:35:23;99939.66;;;14.56;73.01
55801;BME280;41730;51.960;20.158;2022-10-22T10:38:05;99937.30;;;14.55;72.90
55801;BME280;41730;51.960;20.158;2022-10-22T10:40:43;99936.46;;;14.47;73.17
55801;BME280;41730;51.960;20.158;2022-10-22T10:43:17;99925.52;;;14.54;73.08
55801;BME280;41730;51.960;20.158;2022-10-22T10:45:58;99920.12;;;14.62;72.86
55801;BME280;41730;51.960;20.158;2022-10-22T10:48:41;99913.26;;;14.64;72.68
55801;BME280;41730;51.960;20.158;2022-10-22T10:54:12;99903.39;;;14.84;72.06
55801;BME280;41730;51.960;20.158;2022-10-22T10:56:48;99904.51;;;14.72;72.64
55801;BME280;41730;51.960;20.158;2022-10-22T10:59:26;99901.45;;;14.74;72.71
55801;BME280;41730;51.960;20.158;2022-10-22T11:02:12;99902.39;;;14.79;72.60
55801;BME280;41730;51.960;20.158;2022-10-22T11:05:03;99905.83;;;14.91;72.21
55801;BME280;41730;51.960;20.158;2022-10-22T11:07:39;99907.46;;;14.86;72.27
55801;BME280;41730;51.960;20.158;2022-10-22T11:10:15;99910.63;;;14.91;72.15
55801;BME280;41730;51.960;20.158;2022-10-22T11:12:56;99911.41;;;14.87;72.15
55801;BME280;41730;51.960;20.158;2022-10-22T11:15:33;99907.47;;;14.71;72.46
55801;BME280;41730;51.960;20.158;2022-10-22T11:18:09;99904.90;;;14.63;72.82
55801;BME280;41730;51.960;20.158;2022-10-22T11:21:02;99903.61;;;14.57;73.16
55801;BME280;41730;51.960;20.158;2022-10-22T11:23:38;99898.83;;;14.60;72.96
55801;BME280;41730;51.960;20.158;2022-10-22T11:26:14;99898.11;;;14.45;73.60
55801;BME280;41730;51.960;20.158;2022-10-22T11:28:47;99892.19;;;14.46;73.87
55801;BME280;41730;51.960;20.158;2022-10-22T11:31:19;99891.07;;;14.46;73.69
55801;BME280;41730;51.960;20.158;2022-10-22T11:33:57;99883.90;;;14.51;73.71
55801;BME280;41730;51.960;20.158;2022-10-22T11:36:52;99885.34;;;14.50;73.60
55801;BME280;41730;51.960;20.158;2022-10-22T11:39:32;99885.80;;;14.51;73.88
55801;BME280;41730;51.960;20.158;2022-10-22T11:42:03;99884.48;;;14.61;73.54
55801;BME280;41730;51.960;20.158;2022-10-22T11:44:45;99884.21;;;14.61;73.56
55801;BME280;41730;51.960;20.158;2022-10-22T11:47:22;99881.70;;;14.60;73.71
55801;BME280;41730;51.960;20.158;2022-10-22T11:50:01;99877.88;;;14.67;73.52
55801;BME280;41730;51.960;20.158;2022-10-22T11:52:51;99877.16;;;14.58;73.77
55801;BME280;41730;51.960;20.158;2022-10-22T11:55:43;99878.83;;;14.64;73.68
55801;BME280;41730;51.960;20.158;2022-10-22T11:58:40;99878.31;;;14.50;73.98
55801;BME280;41730;51.960;20.158;2022-10-22T12:01:22;99877.47;;;14.55;74.18
55801;BME280;41730;51.960;20.158;2022-10-22T12:03:52;99876.27;;;14.70;73.91
55801;BME280;41730;51.960;20.158;2022-10-22T12:06:53;99875.34;;;14.84;73.37
55801;BME280;41730;51.960;20.158;2022-10-22T12:09:23;99875.14;;;14.86;73.20
55801;BME280;41730;51.960;20.158;2022-10-22T12:12:12;99873.30;;;14.88;73.15
55801;BME280;41730;51.960;20.158;2022-10-22T12:14:53;99875.05;;;14.98;72.81
55801;BME280;41730;51.960;20.158;2022-10-22T12:17:23;99879.47;;;14.85;73.06
55801;BME280;41730;51.960;20.158;2022-10-22T12:19:57;99873.73;;;14.76;73.37
55801;BME280;41730;51.960;20.158;2022-10-22T12:22:31;99874.86;;;14.75;73.35
55801;BME280;41730;51.960;20.158;2022-10-22T12:25:05;99866.83;;;14.86;72.96
55801;BME280;41730;51.960;20.158;2022-10-22T12:27:38;99868.01;;;14.78;73.20
55801;BME280;41730;51.960;20.158;2022-10-22T12:30:19;99869.91;;;14.67;73.49
55801;BME280;41730;51.960;20.158;2022-10-22T12:32:51;99866.38;;;14.77;73.17
55801;BME280;41730;51.960;20.158;2022-10-22T12:35:23;99868.88;;;14.79;73.06
55801;BME280;41730;51.960;20.158;2022-10-22T12:37:54;99879.92;;;14.77;73.14
55801;BME280;41730;51.960;20.158;2022-10-22T12:40:25;99882.77;;;14.80;72.96
55801;BME280;41730;51.960;20.158;2022-10-22T12:42:56;99884.42;;;14.77;73.06
55801;BME280;41730;51.960;20.158;2022-10-22T12:45:28;99875.73;;;14.80;72.87
55801;BME280;41730;51.960;20.158;2022-10-22T12:47:58;99881.47;;;14.76;73.04
55801;BME280;41730;51.960;20.158;2022-10-22T12:50:32;99883.35;;;14.83;72.82
55801;BME280;41730;51.960;20.158;2022-10-22T12:53:12;99894.09;;;14.82;72.72
55801;BME280;41730;51.960;20.158;2022-10-22T12:56:00;99886.73;;;14.81;72.86
55801;BME280;41730;51.960;20.158;2022-10-22T12:58:35;99879.17;;;14.84;72.78
55801;BME280;41730;51.960;20.158;2022-10-22T13:01:08;99878.45;;;14.83;72.89
55801;BME280;41730;51.960;20.158;2022-10-22T13:03:42;99880.64;;;14.91;72.73
55801;BME280;41730;51.960;20.158;2022-10-22T13:06:20;99879.73;;;14.94;72.66
55801;BME280;41730;51.960;20.158;2022-10-22T13:09:13;99879.96;;;14.97;72.55
55801;BME280;41730;51.960;20.158;2022-10-22T13:11:50;99874.52;;;14.95;72.50
55801;BME280;41730;51.960;20.158;2022-10-22T13:14:26;99872.64;;;14.94;72.62
55801;BME280;41730;51.960;20.158;2022-10-22T13:17:09;99871.48;;;14.95;72.55
55801;BME280;41730;51.960;20.158;2022-10-22T13:19:42;99866.21;;;14.93;72.76
55801;BME280;41730;51.960;20.158;2022-10-22T13:22:32;99868.69;;;14.88;72.95
55801;BME280;41730;51.960;20.158;2022-10-22T13:25:18;99871.45;;;14.94;72.88